Petersfield, United Kingdom
Current Conditions -  °F | °C
As of 9:27 PM on Thursday 23 Oct 2014 (Local Time) from EGVO Reporting Station
Light Rain Light Rain  
Wind Chill: 57°   Ceiling: 700
Heat Index: 57°   Visibility: 6mi
Dew Point: 55°   Wind: 14mph
Humidity: 94%   Direction: 200°SSW
Pressure: 30.03"   Gusts: NA
Location:  51°N, 0.93°W
Report Text: EGVO 232027Z 20012KT 9999 -RADZ SCT006 BKN007 14/13 Q1017 YLO1 BECMG NSW BKN007 GRN
Loading
Personal Weather Stations






























Interactive Weather Map
Tropical Storm Tracking
New forecast layout! Learn more

10-Day Weather Forecast

Advertisements
Track Severe Weather on mobile